Time;durP1;ratioP1;P1;durP2;ratioP2;P2;SDS_P1;SDS_P2;PMS_P1;PMS_P2;Temp;Humidity;BMP_temperature;BMP_pressure;BME280_temperature;BME280_humidity;BME280_pressure;Samples;Min_cycle;Max_cycle;Signal;HPM_P1;HPM_P2
2022/08/10 00:00:48;;;;;;;25.13;10.40;;;;;;;7.57;100.00;102278.47;4953543;28;20049;-76
2022/08/10 00:03:14;;;;;;;29.20;12.90;;;;;;;7.43;100.00;102276.81;4944581;28;20480;-77
2022/08/10 00:05:39;;;;;;;58.90;18.05;;;;;;;7.37;100.00;102282.66;4979488;28;20381;-78
2022/08/10 00:08:05;;;;;;;43.78;16.00;;;;;;;7.38;100.00;102308.47;4963310;28;20090;-79
2022/08/10 00:10:31;;;;;;;53.80;19.10;;;;;;;7.46;100.00;102305.19;4968988;28;20026;-76
2022/08/10 00:12:56;;;;;;;61.47;22.15;;;;;;;7.53;100.00;102305.56;4989477;28;20065;-79
2022/08/10 00:15:23;;;;;;;67.53;22.42;;;;;;;7.39;100.00;102303.97;4975137;28;20038;-78
2022/08/10 00:17:49;;;;;;;41.50;17.45;;;;;;;7.36;100.00;102307.72;4985730;28;20071;-77
2022/08/10 00:20:14;;;;;;;43.92;18.77;;;;;;;7.46;100.00;102310.53;4986665;28;20034;-77
2022/08/10 00:22:40;;;;;;;51.63;18.85;;;;;;;7.43;100.00;102295.56;4972081;28;20035;-77
2022/08/10 00:25:06;;;;;;;49.03;18.88;;;;;;;7.38;100.00;102305.78;4974291;28;20034;-78
2022/08/10 00:27:32;;;;;;;46.45;18.40;;;;;;;7.22;100.00;102297.19;4952142;28;20095;-76
2022/08/10 00:29:58;;;;;;;52.08;19.17;;;;;;;7.19;100.00;102298.28;4986242;28;20272;-77
2022/08/10 00:32:24;;;;;;;53.05;20.05;;;;;;;7.11;100.00;102278.44;4964295;28;20448;-77
2022/08/10 00:34:50;;;;;;;50.28;17.95;;;;;;;7.10;100.00;102274.91;4985103;28;20106;-77
2022/08/10 00:37:17;;;;;;;43.85;17.35;;;;;;;7.18;100.00;102295.75;4969299;28;20038;-77
2022/08/10 00:39:43;;;;;;;55.63;21.23;;;;;;;7.05;100.00;102287.78;4983321;28;20030;-76
2022/08/10 00:42:10;;;;;;;57.60;21.85;;;;;;;7.00;100.00;102298.81;4978794;28;20038;-77
2022/08/10 00:44:42;;;;;;;54.83;20.83;;;;;;;6.83;100.00;102285.88;4954285;28;20073;-77
2022/08/10 00:47:09;;;;;;;65.45;23.25;;;;;;;6.87;100.00;102295.34;4970625;28;20092;-77
2022/08/10 00:49:34;;;;;;;69.90;23.05;;;;;;;6.83;100.00;102307.25;4950424;28;20089;-77
2022/08/10 00:52:01;;;;;;;55.97;20.42;;;;;;;6.82;100.00;102294.84;4971637;28;20034;-77
2022/08/10 00:54:27;;;;;;;54.25;19.38;;;;;;;6.89;100.00;102306.78;4951916;28;20539;-77
2022/08/10 00:56:53;;;;;;;54.90;19.40;;;;;;;6.96;100.00;102297.34;4985065;28;20042;-77
2022/08/10 00:59:19;;;;;;;52.20;18.02;;;;;;;6.99;100.00;102296.28;4961947;28;20484;-77
2022/08/10 01:01:44;;;;;;;45.67;18.15;;;;;;;6.93;100.00;102305.63;4971375;28;20034;-76
2022/08/10 01:04:10;;;;;;;36.35;13.13;;;;;;;6.80;100.00;102288.75;4966538;28;20449;-77
2022/08/10 01:06:51;;;;;;;32.05;12.55;;;;;;;6.83;100.00;102304.59;4985944;28;20045;-75
2022/08/10 01:09:34;;;;;;;37.53;12.98;;;;;;;6.65;100.00;102279.22;4983201;28;20030;-77
2022/08/10 01:12:08;;;;;;;32.08;12.30;;;;;;;6.74;100.00;102303.41;4973905;28;20318;-76
2022/08/10 01:14:33;;;;;;;;;;;;;;;6.75;100.00;102309.66;4987720;28;20022;-76
2022/08/10 01:17:06;;;;;;;25.63;9.68;;;;;;;6.75;100.00;102298.97;4986000;28;20740;-76
2022/08/10 01:19:59;;;;;;;26.60;10.18;;;;;;;6.77;100.00;102310.38;4967048;28;20034;-76
2022/08/10 01:22:30;;;;;;;25.40;10.00;;;;;;;6.59;100.00;102286.72;4958019;28;20384;-76
2022/08/10 01:24:59;;;;;;;34.42;11.48;;;;;;;6.74;100.00;102307.91;4962040;28;20030;-77
2022/08/10 01:27:46;;;;;;;21.25;9.50;;;;;;;6.63;100.00;102295.34;4994655;28;20042;-76
2022/08/10 01:30:17;;;;;;;30.45;12.52;;;;;;;6.73;100.00;102288.34;4978804;28;20030;-77
2022/08/10 01:32:57;;;;;;;40.83;15.63;;;;;;;6.83;100.00;102296.56;4954256;28;20125;-77
2022/08/10 01:35:28;;;;;;;33.13;13.25;;;;;;;6.95;100.00;102298.31;4965637;28;20039;-77
2022/08/10 01:38:18;;;;;;;43.35;15.65;;;;;;;7.19;100.00;102302.78;4965228;28;20126;-77
2022/08/10 01:40:56;;;;;;;37.38;14.38;;;;;;;7.38;100.00;102302.25;4983223;28;20504;-76
2022/08/10 01:43:24;;;;;;;43.30;17.13;;;;;;;7.45;100.00;102295.44;4975729;28;20030;-77
2022/08/10 01:45:56;;;;;;;36.22;15.88;;;;;;;7.55;100.00;102284.91;4982479;28;20034;-76
2022/08/10 01:48:30;;;;;;;39.90;12.83;;;;;;;7.63;100.00;102293.19;4969496;28;20042;-76
2022/08/10 01:51:17;;;;;;;44.35;15.75;;;;;;;7.68;100.00;102299.03;4970215;28;20030;-78
2022/08/10 01:53:50;;;;;;;39.00;13.50;;;;;;;7.70;100.00;102295.28;4985821;28;20018;-77
2022/08/10 01:56:18;;;;;;;34.92;14.75;;;;;;;7.70;100.00;102300.63;4961133;28;20053;-78
2022/08/10 01:58:45;;;;;;;63.22;22.63;;;;;;;7.66;100.00;102282.25;4966474;28;20050;-77
2022/08/10 02:01:14;;;;;;;63.15;21.15;;;;;;;7.84;100.00;102288.84;4968870;28;20034;-76
2022/08/10 02:03:40;;;;;;;71.13;24.75;;;;;;;7.91;100.00;102283.81;4970722;28;20038;-76
2022/08/10 02:06:09;;;;;;;106.57;34.80;;;;;;;7.76;100.00;102251.09;4962617;28;20172;-77
2022/08/10 02:08:35;;;;;;;83.75;30.17;;;;;;;7.82;100.00;102285.41;4970982;28;20123;-77
2022/08/10 02:11:02;;;;;;;78.65;26.77;;;;;;;7.80;100.00;102282.00;4974524;28;20172;-76
2022/08/10 02:13:27;;;;;;;74.20;27.95;;;;;;;7.86;100.00;102276.19;4972029;28;20043;-77
2022/08/10 02:15:54;;;;;;;93.78;32.65;;;;;;;7.80;100.00;102259.72;4955768;28;20056;-78
2022/08/10 02:18:21;;;;;;;88.78;29.48;;;;;;;7.85;100.00;102274.47;4947318;28;20035;-77
2022/08/10 02:20:49;;;;;;;86.95;33.10;;;;;;;7.90;100.00;102277.63;4990875;28;20054;-77
2022/08/10 02:23:18;;;;;;;89.43;31.27;;;;;;;8.05;100.00;102269.38;4968642;28;20030;-77
2022/08/10 02:25:45;;;;;;;80.97;29.80;;;;;;;8.17;100.00;102279.09;4972588;28;20076;-77
2022/08/10 02:28:14;;;;;;;67.07;27.63;;;;;;;8.15;100.00;102271.19;4971963;28;20117;-77
2022/08/10 02:30:40;;;;;;;87.32;27.15;;;;;;;8.24;100.00;102266.91;4964414;28;20065;-77
2022/08/10 02:33:06;;;;;;;74.53;26.13;;;;;;;8.31;100.00;102264.59;4984930;28;20480;-78
2022/08/10 02:35:33;;;;;;;74.93;25.10;;;;;;;8.27;100.00;102263.13;4962157;28;20066;-76
2022/08/10 02:38:02;;;;;;;67.75;21.55;;;;;;;8.10;100.00;102262.66;4979729;28;20026;-77
2022/08/10 02:40:29;;;;;;;58.95;20.90;;;;;;;7.96;100.00;102265.56;4971705;28;20042;-77
2022/08/10 02:43:02;;;;;;;60.97;20.00;;;;;;;7.52;100.00;102234.28;4967514;28;20405;-77
2022/08/10 02:45:38;;;;;;;71.28;22.50;;;;;;;7.32;100.00;102266.09;4952323;28;20384;-77
2022/08/10 02:48:23;;;;;;;47.80;17.88;;;;;;;7.01;100.00;102260.44;4981226;28;20530;-77
2022/08/10 02:50:57;;;;;;;42.08;15.88;;;;;;;6.88;100.00;102269.47;4964611;28;20481;-77
2022/08/10 02:53:32;;;;;;;45.80;15.88;;;;;;;6.71;100.00;102257.38;4976114;28;20038;-76
2022/08/10 02:56:05;;;;;;;47.55;13.90;;;;;;;6.63;100.00;102263.28;4987049;28;20046;-76
2022/08/10 02:58:37;;;;;;;49.78;17.10;;;;;;;6.52;100.00;102252.53;4972653;28;20046;-77
2022/08/10 03:01:05;;;;;;;43.85;15.00;;;;;;;6.39;100.00;102260.59;4986318;28;20128;-77
2022/08/10 03:03:36;;;;;;;34.95;11.98;;;;;;;6.28;100.00;102264.03;4986302;28;20465;-77
2022/08/10 03:06:08;;;;;;;32.03;9.15;;;;;;;6.10;100.00;102236.81;4956204;28;20516;-77
2022/08/10 03:08:38;;;;;;;25.67;8.98;;;;;;;6.14;100.00;102259.69;4987779;28;20025;-77
2022/08/10 03:11:05;;;;;;;22.15;8.73;;;;;;;5.91;100.00;102239.09;4956371;28;20042;-77
2022/08/10 03:13:32;;;;;;;19.10;8.68;;;;;;;5.86;100.00;102255.41;4985611;28;20027;-77
2022/08/10 03:16:00;;;;;;;17.40;8.02;;;;;;;5.70;100.00;102244.13;4989790;28;20034;-77
2022/08/10 03:18:26;;;;;;;18.02;6.85;;;;;;;5.46;100.00;102207.53;4970627;28;20463;-77
2022/08/10 03:20:53;;;;;;;16.30;6.30;;;;;;;5.76;100.00;102250.84;4982236;28;20390;-77
2022/08/10 03:23:22;;;;;;;10.20;6.43;;;;;;;5.61;100.00;102226.06;4968780;28;20066;-76
2022/08/10 03:25:50;;;;;;;13.85;6.70;;;;;;;5.73;100.00;102247.41;4986796;28;20504;-76
2022/08/10 03:28:16;;;;;;;11.48;5.93;;;;;;;5.68;100.00;102252.22;4986842;28;20566;-76
2022/08/10 03:30:42;;;;;;;13.75;5.95;;;;;;;5.57;100.00;102235.28;4955256;28;20137;-76
2022/08/10 03:33:09;;;;;;;12.32;4.82;;;;;;;5.49;100.00;102246.47;4982081;28;20052;-77
2022/08/10 03:35:35;;;;;;;11.30;4.93;;;;;;;5.40;100.00;102260.44;4969050;28;20058;-77
2022/08/10 03:38:00;;;;;;;14.60;4.53;;;;;;;5.25;100.00;102244.53;4989031;28;20073;-77
2022/08/10 03:40:33;;;;;;;11.48;4.78;;;;;;;5.24;100.00;102249.97;4971581;28;20044;-76
2022/08/10 03:43:00;;;;;;;15.55;5.32;;;;;;;5.14;100.00;102249.75;4982409;28;20045;-77
2022/08/10 03:45:26;;;;;;;10.23;4.70;;;;;;;5.18;100.00;102239.72;4951286;28;20077;-77
2022/08/10 03:47:53;;;;;;;9.93;5.47;;;;;;;5.31;100.00;102240.59;4970583;28;20038;-76
2022/08/10 03:50:20;;;;;;;13.02;5.25;;;;;;;5.32;100.00;102233.44;4967472;28;20118;-76
2022/08/10 03:52:46;;;;;;;10.43;5.30;;;;;;;5.25;100.00;102236.53;4980485;28;20048;-76
2022/08/10 03:55:12;;;;;;;11.98;5.22;;;;;;;5.17;100.00;102238.88;4964471;28;20450;-76
2022/08/10 03:57:38;;;;;;;7.90;3.70;;;;;;;5.17;100.00;102233.53;4943327;28;20121;-76
2022/08/10 04:00:04;;;;;;;11.27;4.20;;;;;;;5.16;100.00;102220.28;4988844;28;20384;-76
2022/08/10 04:02:30;;;;;;;8.25;3.80;;;;;;;5.08;100.00;102212.84;4984800;28;20058;-76
2022/08/10 04:04:55;;;;;;;8.52;3.58;;;;;;;5.11;100.00;102233.06;4968240;28;20066;-76
2022/08/10 04:07:21;;;;;;;6.88;3.33;;;;;;;5.10;100.00;102224.22;4985718;28;20062;-77
2022/08/10 04:09:47;;;;;;;9.77;3.47;;;;;;;5.10;100.00;102226.91;4966249;28;20061;-77
2022/08/10 04:12:13;;;;;;;8.23;3.45;;;;;;;5.14;100.00;102232.91;4982579;28;20487;-76
2022/08/10 04:14:39;;;;;;;13.05;4.53;;;;;;;5.15;100.00;102231.94;4982484;28;20042;-76
2022/08/10 04:17:04;;;;;;;8.30;3.65;;;;;;;5.16;100.00;102242.50;4983216;28;20572;-76
2022/08/10 04:19:40;;;;;;;8.93;3.85;;;;;;;5.11;100.00;102233.97;4977714;28;20035;-76
2022/08/10 04:22:10;;;;;;;10.90;3.30;;;;;;;4.97;100.00;102220.69;4964420;28;20472;-78
2022/08/10 04:24:37;;;;;;;8.55;3.22;;;;;;;4.92;100.00;102228.13;4961063;28;20162;-76
2022/08/10 04:27:03;;;;;;;10.65;3.08;;;;;;;4.88;100.00;102229.31;4970454;28;20463;-76
2022/08/10 04:29:29;;;;;;;9.07;3.42;;;;;;;4.93;100.00;102235.19;4969425;28;20480;-77
2022/08/10 04:31:54;;;;;;;9.07;3.85;;;;;;;4.94;100.00;102236.91;4950011;28;20050;-75
2022/08/10 04:34:21;;;;;;;9.60;3.85;;;;;;;4.91;100.00;102213.13;4958307;28;20057;-77
2022/08/10 04:36:48;;;;;;;9.15;3.42;;;;;;;4.92;100.00;102233.47;4962861;28;20031;-77
2022/08/10 04:39:15;;;;;;;10.02;3.47;;;;;;;4.93;100.00;102225.38;4954168;28;20038;-77
2022/08/10 04:41:40;;;;;;;7.57;3.22;;;;;;;4.95;100.00;102227.94;4942147;28;20058;-76
2022/08/10 04:44:06;;;;;;;9.90;3.08;;;;;;;4.91;100.00;102219.28;4971897;28;20407;-77
2022/08/10 04:46:32;;;;;;;10.15;3.45;;;;;;;4.87;100.00;102222.25;4951695;28;20038;-76
2022/08/10 04:48:58;;;;;;;5.53;2.78;;;;;;;4.84;100.00;102225.97;4968088;28;20026;-76
2022/08/10 04:51:23;;;;;;;7.90;3.20;;;;;;;4.84;100.00;102221.53;4973546;28;20049;-77
2022/08/10 04:53:50;;;;;;;8.07;3.00;;;;;;;4.80;100.00;102217.34;4970045;28;20034;-75
2022/08/10 04:56:15;;;;;;;8.40;2.90;;;;;;;4.69;100.00;102201.22;4983669;28;20034;-76
2022/08/10 04:58:41;;;;;;;4.28;2.83;;;;;;;4.74;100.00;102207.13;4972181;28;20421;-76
2022/08/10 05:01:07;;;;;;;7.80;2.88;;;;;;;4.78;100.00;102202.41;4942242;28;20097;-77
2022/08/10 05:03:32;;;;;;;7.03;3.50;;;;;;;4.85;100.00;102193.91;4982997;28;20030;-76
2022/08/10 05:05:58;;;;;;;9.90;3.67;;;;;;;5.09;100.00;102209.22;4968467;28;20384;-76
2022/08/10 05:08:25;;;;;;;7.60;3.10;;;;;;;5.21;100.00;102203.03;4948346;28;20070;-76
2022/08/10 05:10:51;;;;;;;9.27;2.58;;;;;;;5.40;100.00;102193.75;4953137;28;20113;-76
2022/08/10 05:13:17;;;;;;;5.88;2.58;;;;;;;5.55;100.00;102200.69;4969898;28;20023;-76
2022/08/10 05:15:44;;;;;;;6.40;2.72;;;;;;;5.64;100.00;102194.72;4957015;28;20476;-76
2022/08/10 05:18:10;;;;;;;9.23;3.70;;;;;;;5.76;100.00;102205.47;4987489;28;20045;-76
2022/08/10 05:20:36;;;;;;;5.35;2.80;;;;;;;5.81;100.00;102204.19;4986586;28;20088;-77
2022/08/10 05:23:02;;;;;;;10.80;3.22;;;;;;;5.79;100.00;102211.44;4984095;28;20035;-77
2022/08/10 05:25:28;;;;;;;7.50;3.08;;;;;;;5.83;100.00;102217.44;4983486;28;20073;-77
2022/08/10 05:27:53;;;;;;;6.82;3.10;;;;;;;5.86;100.00;102201.19;4966702;28;20038;-76
2022/08/10 05:30:20;;;;;;;7.25;3.08;;;;;;;6.00;100.00;102210.91;4983815;28;20432;-76
2022/08/10 05:32:46;;;;;;;7.72;3.72;;;;;;;5.96;100.00;102196.09;4956744;28;20034;-76
2022/08/10 05:35:12;;;;;;;11.40;3.58;;;;;;;5.95;100.00;102195.19;4955985;28;20060;-76
2022/08/10 05:37:38;;;;;;;8.82;3.38;;;;;;;6.04;100.00;102207.91;4948580;28;20034;-77
2022/08/10 05:40:05;;;;;;;7.60;2.85;;;;;;;6.09;100.00;102197.75;4953900;28;20461;-76
2022/08/10 05:42:31;;;;;;;8.05;2.88;;;;;;;6.16;100.00;102200.81;4978128;28;20035;-78
2022/08/10 05:44:57;;;;;;;11.15;3.42;;;;;;;6.27;100.00;102197.34;4988209;28;20073;-76
2022/08/10 05:47:23;;;;;;;6.43;3.08;;;;;;;6.40;100.00;102200.81;4968741;28;20069;-76
2022/08/10 05:49:50;;;;;;;7.47;3.60;;;;;;;6.54;100.00;102202.50;4969000;28;20559;-77
2022/08/10 05:52:16;;;;;;;6.50;3.20;;;;;;;6.57;100.00;102181.72;4950810;28;20026;-76
2022/08/10 05:54:42;;;;;;;6.07;2.90;;;;;;;6.83;100.00;102200.31;4976143;28;20034;-76
2022/08/10 05:57:09;;;;;;;8.10;3.75;;;;;;;6.89;100.00;102202.50;4999440;28;20042;-77
2022/08/10 05:59:36;;;;;;;6.32;3.17;;;;;;;7.07;100.00;102204.78;4948165;28;20045;-78
2022/08/10 06:02:03;;;;;;;7.20;3.08;;;;;;;7.22;100.00;102214.25;4945004;28;20481;-77
2022/08/10 06:04:37;;;;;;;6.18;3.03;;;;;;;7.39;100.00;102215.66;4957466;28;20038;-77
2022/08/10 06:07:04;;;;;;;10.25;2.95;;;;;;;7.55;100.00;102200.09;4998859;28;20045;-76
2022/08/10 06:09:30;;;;;;;6.85;3.20;;;;;;;7.65;100.00;102192.19;4983600;28;20393;-77
2022/08/10 06:11:57;;;;;;;9.13;4.43;;;;;;;7.86;100.00;102206.56;4961817;28;20253;-77
2022/08/10 06:17:08;;;;;;;7.97;2.88;;;;;;;8.16;100.00;102199.69;4979021;28;20030;-77
2022/08/10 06:19:34;;;;;;;8.48;3.15;;;;;;;8.29;100.00;102207.59;4967549;28;20050;-77
2022/08/10 06:22:01;;;;;;;9.00;3.13;;;;;;;8.28;100.00;102179.94;4960506;28;20483;-76
2022/08/10 06:24:29;;;;;;;14.07;3.90;;;;;;;8.62;100.00;102203.97;4942687;28;20043;-77
2022/08/10 06:26:55;;;;;;;7.93;2.95;;;;;;;8.83;100.00;102204.00;4961779;28;20030;-77
2022/08/10 06:32:28;;;;;;;6.45;2.53;;;;;;;9.20;100.00;102195.50;4994583;28;20054;-77
2022/08/10 06:35:07;;;;;;;5.18;2.60;;;;;;;9.13;100.00;102197.00;4952316;28;20058;-79
2022/08/10 06:37:39;;;;;;;6.93;2.63;;;;;;;9.01;100.00;102183.66;4964352;28;20038;-77
2022/08/10 06:40:06;;;;;;;7.05;3.20;;;;;;;9.01;100.00;102188.19;4950197;28;20042;-78
2022/08/10 06:42:34;;;;;;;9.63;3.42;;;;;;;8.92;100.00;102173.75;4994039;28;20026;-77
2022/08/10 06:45:00;;;;;;;8.02;3.20;;;;;;;9.14;100.00;102188.00;4983085;28;20566;-77
2022/08/10 06:47:32;;;;;;;7.75;2.80;;;;;;;9.28;100.00;102189.50;4985761;28;20034;-77
2022/08/10 06:49:59;;;;;;;9.25;3.05;;;;;;;9.50;100.00;102189.34;4976774;28;20240;-77
2022/08/10 06:52:26;;;;;;;8.40;3.17;;;;;;;9.65;100.00;102197.88;4954285;28;20165;-77
2022/08/10 06:54:53;;;;;;;9.45;3.20;;;;;;;9.59;100.00;102161.66;4981078;28;20038;-77
2022/08/10 06:57:20;;;;;;;9.55;3.70;;;;;;;9.99;100.00;102195.75;4987211;28;20042;-77
2022/08/10 06:59:46;;;;;;;9.88;3.63;;;;;;;10.18;100.00;102205.69;4964888;28;20045;-77
2022/08/10 07:02:14;;;;;;;9.15;3.65;;;;;;;10.40;100.00;102204.66;4970392;28;20124;-77
2022/08/10 07:05:04;;;;;;;10.60;3.80;;;;;;;10.65;100.00;102205.09;4949593;28;20041;-77
2022/08/10 07:07:34;;;;;;;8.60;4.10;;;;;;;10.94;100.00;102197.88;4953398;28;20034;-77
2022/08/10 07:10:00;;;;;;;14.00;4.50;;;;;;;13.07;100.00;102199.63;4980631;28;20039;-76
2022/08/10 07:12:26;;;;;;;12.77;4.63;;;;;;;15.43;100.00;102192.38;4957560;28;20342;-78
2022/08/10 07:14:53;;;;;;;16.23;5.20;;;;;;;17.12;93.53;102196.25;4967081;28;20479;-75
2022/08/10 07:17:21;;;;;;;14.00;4.95;;;;;;;18.37;87.29;102184.56;4968242;28;20132;-77
2022/08/10 07:19:49;;;;;;;13.55;4.03;;;;;;;19.61;79.54;102196.94;4972107;28;20480;-74
2022/08/10 07:22:17;;;;;;;7.78;3.42;;;;;;;20.29;75.77;102195.19;4953550;28;20090;-75
2022/08/10 07:24:44;;;;;;;5.45;3.83;;;;;;;21.04;72.95;102189.69;4966093;28;20038;-75
2022/08/10 07:27:10;;;;;;;3.38;2.38;;;;;;;21.53;67.00;102188.38;4951679;28;20054;-75
2022/08/10 07:29:36;;;;;;;5.38;2.83;;;;;;;22.06;66.19;102193.66;4986069;28;20027;-76
2022/08/10 07:32:03;;;;;;;5.07;2.70;;;;;;;22.30;63.76;102194.84;4954229;28;20495;-75
2022/08/10 07:34:29;;;;;;;5.57;2.70;;;;;;;22.64;63.82;102198.22;4957252;28;20404;-76
2022/08/10 07:36:55;;;;;;;3.90;2.83;;;;;;;23.13;61.14;102191.13;4948875;28;20110;-76
2022/08/10 07:39:23;;;;;;;2.58;2.28;;;;;;;23.36;59.83;102200.63;4965969;28;20461;-76
2022/08/10 07:41:50;;;;;;;3.88;2.45;;;;;;;23.91;58.96;102208.91;4955895;28;20040;-75
2022/08/10 07:44:42;;;;;;;3.90;2.50;;;;;;;24.54;57.43;102199.44;4968264;28;20037;-78
2022/08/10 07:47:12;;;;;;;3.88;2.97;;;;;;;25.53;55.22;102198.84;4986358;28;20109;-77
2022/08/10 07:49:40;;;;;;;3.72;2.70;;;;;;;26.11;52.83;102203.41;4981673;28;20122;-76
2022/08/10 07:52:07;;;;;;;3.80;2.70;;;;;;;26.24;50.61;102200.38;4962046;28;20065;-78
2022/08/10 07:54:39;;;;;;;5.25;2.95;;;;;;;26.47;49.22;102190.34;4976437;28;20567;-77
2022/08/10 07:57:10;;;;;;;6.20;3.33;;;;;;;26.94;48.06;102195.59;4968011;28;20088;-78
2022/08/10 07:59:39;;;;;;;3.50;2.70;;;;;;;27.02;47.23;102195.19;4946247;28;20043;-77
2022/08/10 08:02:38;;;;;;;4.75;3.00;;;;;;;26.50;46.31;102206.38;4989306;28;20026;-76
2022/08/10 08:05:09;;;;;;;3.90;2.95;;;;;;;26.22;48.14;102188.75;4967337;28;20046;-82
2022/08/10 08:07:42;;;;;;;4.45;3.42;;;;;;;26.69;49.75;102190.47;4981886;28;20097;-84
2022/08/10 08:10:12;;;;;;;5.38;3.60;;;;;;;27.50;47.32;102195.66;4987666;28;20038;-82
2022/08/10 08:12:39;;;;;;;6.22;3.17;;;;;;;27.51;44.54;102198.13;4948810;28;20027;-82
2022/08/10 08:15:07;;;;;;;5.13;3.45;;;;;;;27.50;44.14;102199.25;4967840;28;20147;-82
2022/08/10 08:17:40;;;;;;;7.03;3.65;;;;;;;27.71;44.90;102197.59;4965119;28;20388;-85
2022/08/10 08:20:06;;;;;;;6.85;4.00;;;;;;;27.96;43.71;102186.03;4981604;28;20489;-84
2022/08/10 08:22:33;;;;;;;5.35;3.75;;;;;;;28.55;42.53;102185.31;4988758;28;20061;-82
2022/08/10 08:24:59;;;;;;;8.57;4.43;;;;;;;28.69;41.54;102183.78;4985478;28;20472;-83
2022/08/10 08:27:26;;;;;;;8.77;5.63;;;;;;;29.10;40.48;102184.13;4956021;28;20076;-82
2022/08/10 08:29:52;;;;;;;8.00;5.22;;;;;;;29.08;39.68;102163.34;4954603;28;20090;-81
2022/08/10 08:32:23;;;;;;;9.63;7.82;;;;;;;28.97;39.96;102183.72;4980427;28;20042;-82
2022/08/10 08:34:58;;;;;;;10.30;5.00;;;;;;;29.01;38.92;102182.94;4960765;28;20034;-81
2022/08/10 08:37:27;;;;;;;7.82;4.32;;;;;;;28.91;38.80;102197.53;4952500;28;20042;-82
2022/08/10 08:39:52;;;;;;;10.60;3.60;;;;;;;28.79;38.35;102194.13;4954929;28;20132;-81
2022/08/10 08:42:36;;;;;;;8.98;3.70;;;;;;;28.55;39.39;102190.84;4971619;28;20126;-81
2022/08/10 08:45:07;;;;;;;14.27;4.65;;;;;;;29.27;39.80;102195.06;4993913;28;20057;-80
2022/08/10 08:47:35;;;;;;;7.40;3.72;;;;;;;29.42;38.17;102183.22;4968599;28;20580;-81
2022/08/10 08:50:24;;;;;;;6.43;3.60;;;;;;;29.55;37.82;102193.81;4984431;28;20476;-82
2022/08/10 08:52:58;;;;;;;6.38;3.50;;;;;;;30.04;37.02;102197.41;4971005;28;20106;-83
2022/08/10 08:55:44;;;;;;;6.43;3.97;;;;;;;30.20;36.08;102193.56;4955732;28;20480;-82
2022/08/10 08:58:41;;;;;;;6.53;3.67;;;;;;;30.51;36.15;102190.88;4967551;28;20129;-82
2022/08/10 09:01:34;;;;;;;5.22;3.50;;;;;;;30.51;35.43;102179.75;4993723;28;20076;-81
2022/08/10 09:04:23;;;;;;;8.85;3.60;;;;;;;30.55;34.50;102187.28;4969897;28;20046;-81
2022/08/10 09:07:16;;;;;;;6.05;2.97;;;;;;;30.59;34.26;102193.09;4968208;28;20109;-81
2022/08/10 09:10:10;;;;;;;5.55;3.08;;;;;;;31.21;33.77;102191.16;4970167;28;20539;-81
2022/08/10 09:13:07;;;;;;;4.97;3.00;;;;;;;31.68;32.32;102189.97;4968280;28;20088;-82
2022/08/10 09:15:48;;;;;;;3.15;2.78;;;;;;;32.06;31.74;102173.66;4985323;28;20519;-82
2022/08/10 09:18:27;;;;;;;5.97;2.97;;;;;;;32.15;30.34;102174.72;4945706;28;20039;-81
2022/08/10 09:21:03;;;;;;;8.88;2.90;;;;;;;32.17;31.22;102178.03;4957261;28;20118;-81
2022/08/10 09:23:54;;;;;;;5.78;3.10;;;;;;;32.33;30.65;102187.13;4961404;28;20345;-81
2022/08/10 09:26:22;;;;;;;4.60;2.45;;;;;;;32.60;30.02;102181.09;4967342;28;20047;-81
2022/08/10 09:28:51;;;;;;;4.70;2.92;;;;;;;32.87;29.31;102179.75;4955483;28;20038;-82
2022/08/10 09:31:19;;;;;;;5.15;2.38;;;;;;;32.95;29.00;102170.78;4954134;28;20046;-82
2022/08/10 09:34:10;;;;;;;3.42;2.20;;;;;;;33.39;27.82;102180.94;4953477;28;20543;-82
2022/08/10 09:36:43;;;;;;;4.07;1.90;;;;;;;33.30;27.30;102166.00;4983009;28;20058;-81
2022/08/10 09:39:17;;;;;;;2.88;2.00;;;;;;;32.89;28.22;102172.78;4946803;28;20504;-81
2022/08/10 09:42:17;;;;;;;2.88;1.88;;;;;;;33.04;27.02;102174.63;4985367;28;20155;-81
2022/08/10 09:44:43;;;;;;;2.10;1.80;;;;;;;33.38;26.36;102170.94;4964474;28;20026;-83
2022/08/10 09:47:36;;;;;;;1.85;1.50;;;;;;;33.45;25.71;102161.09;4974657;28;20030;-83
2022/08/10 09:50:10;;;;;;;6.25;2.05;;;;;;;33.77;25.28;102158.75;4952546;28;20043;-81
2022/08/10 09:53:13;;;;;;;2.85;1.70;;;;;;;33.80;22.96;102159.00;4970847;28;20046;-81
2022/08/10 09:55:57;;;;;;;2.97;1.52;;;;;;;33.93;23.77;102155.47;4994121;28;20042;-82
2022/08/10 09:58:37;;;;;;;2.50;1.50;;;;;;;34.01;23.53;102144.75;4995572;28;20045;-81
2022/08/10 10:01:52;;;;;;;2.45;1.30;;;;;;;33.38;20.83;102141.09;4982223;28;20065;-81
2022/08/10 10:04:27;;;;;;;1.67;1.50;;;;;;;33.60;20.87;102143.34;4988095;28;20137;-82
2022/08/10 10:07:05;;;;;;;2.90;1.35;;;;;;;34.07;20.96;102127.66;4941990;28;20035;-80
2022/08/10 10:10:00;;;;;;;7.07;1.13;;;;;;;33.86;18.26;102120.69;4974603;28;20507;-81
2022/08/10 10:12:37;;;;;;;2.22;1.30;;;;;;;34.23;20.03;102124.63;4972505;28;20730;-81
2022/08/10 10:15:20;;;;;;;1.63;1.42;;;;;;;34.32;18.50;102125.59;4970182;28;20034;-82
2022/08/10 10:18:23;;;;;;;1.90;1.15;;;;;;;34.58;18.20;102110.09;4977785;28;20031;-82
2022/08/10 10:21:18;;;;;;;2.85;1.60;;;;;;;34.27;18.71;102114.50;4985238;28;20054;-81
2022/08/10 10:24:06;;;;;;;2.90;1.50;;;;;;;33.82;20.06;102081.41;4969391;28;20515;-82
2022/08/10 10:26:49;;;;;;;3.08;1.40;;;;;;;33.80;22.03;102085.63;4968184;28;20034;-80
2022/08/10 10:29:40;;;;;;;2.38;1.50;;;;;;;34.02;20.22;102108.16;4956755;28;20069;-82
2022/08/10 10:32:53;;;;;;;1.65;1.50;;;;;;;34.52;20.04;102085.31;4963759;28;20070;-83
2022/08/10 10:35:37;;;;;;;3.97;1.50;;;;;;;34.88;20.79;102093.91;4970958;28;20038;-82
2022/08/10 10:38:08;;;;;;;2.70;1.30;;;;;;;34.26;21.33;102091.34;4988144;28;20066;-82
2022/08/10 10:40:43;;;;;;;1.67;1.23;;;;;;;34.20;20.67;102064.66;4965045;28;20109;-82
2022/08/10 10:43:48;;;;;;;2.20;1.38;;;;;;;34.50;20.07;102098.75;4972760;28;20037;-82
2022/08/10 10:46:48;;;;;;;1.40;1.25;;;;;;;34.11;20.18;102091.59;4983074;28;20035;-82
2022/08/10 10:49:42;;;;;;;2.67;1.73;;;;;;;34.60;20.29;102089.41;4952718;28;20090;-82
2022/08/10 10:52:25;;;;;;;2.88;1.40;;;;;;;34.98;20.09;102076.91;4987122;28;20297;-81
2022/08/10 10:54:56;;;;;;;2.10;1.50;;;;;;;34.34;20.13;102090.63;4963259;28;20038;-81
2022/08/10 10:57:28;;;;;;;1.65;1.40;;;;;;;33.95;21.15;102074.22;4988887;28;20162;-82
2022/08/10 11:00:00;;;;;;;1.90;1.60;;;;;;;34.30;20.93;102081.22;4957411;28;20057;-82
2022/08/10 11:02:59;;;;;;;3.60;1.90;;;;;;;34.33;22.54;102077.00;4988066;28;20911;-81
2022/08/10 11:05:46;;;;;;;2.10;1.80;;;;;;;34.51;21.86;102067.75;4991232;28;20046;-81
2022/08/10 11:08:17;;;;;;;3.90;1.80;;;;;;;34.56;22.63;102062.06;4943570;28;20039;-81
2022/08/10 11:10:49;;;;;;;2.65;1.70;;;;;;;34.83;21.75;102034.50;4988424;28;20126;-81
2022/08/10 11:13:24;;;;;;;3.83;1.90;;;;;;;35.33;21.75;102052.22;4974027;28;20411;-81
2022/08/10 11:15:58;;;;;;;6.25;2.13;;;;;;;35.92;21.79;102069.06;4974264;28;20117;-81
2022/08/10 11:18:49;;;;;;;3.50;1.90;;;;;;;36.00;21.85;102071.13;4956251;28;20030;-81
2022/08/10 11:21:33;;;;;;;2.40;1.88;;;;;;;35.89;22.81;102064.13;4974968;28;20041;-81
2022/08/10 11:24:07;;;;;;;2.22;1.90;;;;;;;35.42;22.02;102041.94;4974076;28;20038;-82
2022/08/10 11:27:11;;;;;;;2.17;1.73;;;;;;;35.34;22.66;102061.44;4968944;28;20405;-82
2022/08/10 11:29:50;;;;;;;3.10;2.22;;;;;;;35.56;22.53;102041.06;4979811;28;20104;-80
2022/08/10 11:32:34;;;;;;;2.95;2.05;;;;;;;35.61;23.36;102054.97;4955751;28;20416;-81
2022/08/10 11:35:18;;;;;;;4.50;2.08;;;;;;;35.31;22.99;102051.69;4957649;28;20065;-81
2022/08/10 11:37:59;;;;;;;2.42;2.00;;;;;;;35.21;24.37;102043.53;4949265;28;20034;-82
2022/08/10 11:40:38;;;;;;;3.05;2.10;;;;;;;35.48;23.07;102034.25;4986613;28;20404;-82
2022/08/10 11:43:09;;;;;;;3.33;2.10;;;;;;;35.61;23.09;102044.59;4988293;28;20069;-81
2022/08/10 11:45:43;;;;;;;4.35;1.85;;;;;;;35.87;22.69;102042.03;4965841;28;20031;-83
2022/08/10 11:48:31;;;;;;;2.83;2.03;;;;;;;36.29;23.05;102041.88;4953601;28;20046;-84